createdAt,value
2022-12-27T00:00:58.947Z,22.88
2022-12-27T00:01:58.939Z,22.88
2022-12-27T00:02:58.922Z,22.88
2022-12-27T00:03:58.897Z,22.78
2022-12-27T00:04:58.887Z,22.78
2022-12-27T00:05:58.919Z,22.97
2022-12-27T00:06:58.892Z,22.88
2022-12-27T00:07:58.900Z,22.78
2022-12-27T00:08:58.884Z,22.88
2022-12-27T00:09:58.891Z,22.88
2022-12-27T00:10:58.879Z,22.88
2022-12-27T00:12:00.128Z,22.88
2022-12-27T00:12:58.881Z,22.78
2022-12-27T00:13:58.886Z,22.88
2022-12-27T00:14:58.877Z,22.88
2022-12-27T00:15:58.921Z,22.88
2022-12-27T00:16:58.881Z,22.88
2022-12-27T00:17:58.884Z,22.88
2022-12-27T00:18:58.872Z,22.78
2022-12-27T00:19:58.895Z,22.78
2022-12-27T00:20:58.883Z,22.78
2022-12-27T00:21:58.901Z,22.88
2022-12-27T00:22:58.882Z,22.78
2022-12-27T00:23:58.877Z,22.78
2022-12-27T00:24:58.870Z,22.88
2022-12-27T00:25:58.879Z,22.88
2022-12-27T00:26:58.868Z,22.88
2022-12-27T00:27:58.873Z,22.78
2022-12-27T00:28:58.872Z,22.78
2022-12-27T00:29:58.875Z,22.78
2022-12-27T00:30:58.875Z,22.88
2022-12-27T00:31:58.910Z,22.78
2022-12-27T00:32:58.862Z,22.88
2022-12-27T00:33:58.868Z,22.88
2022-12-27T00:34:58.858Z,22.88
2022-12-27T00:35:58.866Z,22.78
2022-12-27T00:36:58.861Z,22.88
2022-12-27T00:37:58.888Z,22.88
2022-12-27T00:38:58.855Z,22.78
2022-12-27T00:39:58.862Z,22.78
2022-12-27T00:40:58.855Z,22.78
2022-12-27T00:41:58.869Z,22.88
2022-12-27T00:42:58.852Z,22.88
2022-12-27T00:43:58.869Z,22.88
2022-12-27T00:44:58.851Z,22.78
2022-12-27T00:45:58.925Z,22.88
2022-12-27T00:46:58.854Z,22.78
2022-12-27T00:47:58.856Z,22.88
2022-12-27T00:48:58.845Z,22.88
2022-12-27T00:49:58.854Z,22.78
2022-12-27T00:50:58.847Z,22.78
2022-12-27T00:51:58.852Z,22.88
2022-12-27T00:52:58.845Z,22.88
2022-12-27T00:53:58.878Z,22.88
2022-12-27T00:54:58.843Z,22.88
2022-12-27T00:55:58.869Z,22.88
2022-12-27T00:56:58.842Z,22.88
2022-12-27T00:57:58.849Z,22.88
2022-12-27T00:58:58.860Z,22.88
2022-12-27T00:59:58.849Z,22.88
2022-12-27T01:00:58.868Z,22.88
2022-12-27T01:01:58.928Z,22.88
2022-12-27T01:02:58.845Z,22.78
2022-12-27T01:03:58.928Z,22.78
2022-12-27T01:04:58.838Z,22.88
2022-12-27T01:05:58.847Z,22.88
2022-12-27T01:06:58.842Z,22.88
2022-12-27T01:07:58.853Z,22.78
2022-12-27T01:08:58.839Z,22.78
2022-12-27T01:09:58.868Z,22.78
2022-12-27T01:10:58.832Z,22.88
2022-12-27T01:11:58.837Z,22.97
2022-12-27T01:12:58.831Z,22.88
2022-12-27T01:13:58.846Z,22.88
2022-12-27T01:14:58.828Z,22.88
2022-12-27T01:15:58.836Z,22.88
2022-12-27T01:16:58.869Z,22.88
2022-12-27T01:17:58.849Z,22.88
2022-12-27T01:18:58.832Z,22.88
2022-12-27T01:19:58.837Z,22.88
2022-12-27T01:20:58.829Z,22.88
2022-12-27T01:21:58.838Z,22.97
2022-12-27T01:22:58.828Z,22.88
2022-12-27T01:23:58.836Z,22.88
2022-12-27T01:24:58.822Z,22.88
2022-12-27T01:25:58.849Z,22.88
2022-12-27T01:26:58.818Z,22.88
2022-12-27T01:27:58.826Z,22.88
2022-12-27T01:28:58.820Z,22.78
2022-12-27T01:29:58.834Z,22.88
2022-12-27T01:30:58.821Z,22.78
2022-12-27T01:31:58.847Z,22.97
2022-12-27T01:32:58.819Z,22.78
2022-12-27T01:33:58.850Z,22.88
2022-12-27T01:34:58.812Z,22.88
2022-12-27T01:35:58.823Z,22.88
2022-12-27T01:36:58.810Z,22.88
2022-12-27T01:37:58.820Z,22.97
2022-12-27T01:38:58.825Z,22.88
2022-12-27T01:39:58.816Z,22.88
2022-12-27T01:40:58.808Z,22.97
2022-12-27T01:41:58.841Z,22.78
2022-12-27T01:42:58.806Z,22.88
2022-12-27T01:43:58.811Z,22.88
2022-12-27T01:44:58.804Z,22.88
2022-12-27T01:45:58.896Z,22.78
2022-12-27T01:46:58.801Z,22.88
2022-12-27T01:47:58.819Z,22.97
2022-12-27T01:48:58.799Z,22.78
2022-12-27T01:49:58.827Z,22.88
2022-12-27T01:50:58.797Z,22.78
2022-12-27T01:51:58.812Z,22.88
2022-12-27T01:52:58.795Z,22.88
2022-12-27T01:53:58.803Z,22.97
2022-12-27T01:54:58.801Z,22.97
2022-12-27T01:55:58.794Z,22.97
2022-12-27T01:56:58.803Z,22.88
2022-12-27T01:57:58.825Z,22.88
2022-12-27T01:58:58.800Z,22.78
2022-12-27T01:59:58.792Z,22.88
2022-12-27T02:00:58.911Z,22.88
2022-12-27T02:01:59.190Z,22.97
2022-12-27T02:02:58.855Z,22.88
2022-12-27T02:03:58.795Z,22.97
2022-12-27T02:04:58.819Z,22.97
2022-12-27T02:05:58.788Z,22.97
2022-12-27T02:06:58.793Z,22.78
2022-12-27T02:07:58.784Z,22.88
2022-12-27T02:08:58.792Z,22.88
2022-12-27T02:09:58.782Z,22.97
2022-12-27T02:10:58.809Z,22.78
2022-12-27T02:11:58.779Z,22.88
2022-12-27T02:12:58.786Z,22.78
2022-12-27T02:13:58.800Z,22.78
2022-12-27T02:14:58.790Z,22.78
2022-12-27T02:15:58.776Z,22.78
2022-12-27T02:16:58.861Z,22.58
2022-12-27T02:17:58.774Z,22.78
2022-12-27T02:18:58.785Z,22.88
2022-12-27T02:19:58.771Z,22.78
2022-12-27T02:20:58.796Z,22.78
2022-12-27T02:21:58.771Z,22.68
2022-12-27T02:22:58.777Z,22.78
2022-12-27T02:23:58.774Z,22.88
2022-12-27T02:24:58.797Z,22.88
2022-12-27T02:25:58.789Z,22.68
2022-12-27T02:26:58.787Z,22.78
2022-12-27T02:27:58.768Z,22.78
2022-12-27T02:28:58.781Z,22.78
2022-12-27T02:29:58.789Z,22.97
2022-12-27T02:30:58.827Z,22.78
2022-12-27T02:31:58.767Z,22.78
2022-12-27T02:32:58.771Z,22.88
2022-12-27T02:33:58.771Z,22.97
2022-12-27T02:34:58.768Z,22.68
2022-12-27T02:35:58.764Z,22.68
2022-12-27T02:36:58.771Z,22.78
2022-12-27T02:37:58.771Z,22.68
2022-12-27T02:38:58.770Z,22.68
2022-12-27T02:39:58.757Z,22.88
2022-12-27T02:40:58.769Z,22.88
2022-12-27T02:41:58.756Z,22.78
2022-12-27T02:42:58.772Z,22.78
2022-12-27T02:43:58.756Z,22.78
2022-12-27T02:44:58.763Z,22.77
2022-12-27T02:45:58.824Z,22.58
2022-12-27T02:46:58.758Z,22.78
2022-12-27T02:47:58.751Z,22.78
2022-12-27T02:48:58.757Z,22.88
2022-12-27T02:49:58.750Z,22.58
2022-12-27T02:50:58.764Z,22.68
2022-12-27T02:51:58.751Z,22.67
2022-12-27T02:52:58.758Z,22.68
2022-12-27T02:53:58.750Z,22.78
2022-12-27T02:54:58.763Z,22.88
2022-12-27T02:55:58.743Z,22.88
2022-12-27T02:56:58.751Z,22.78
2022-12-27T02:57:58.748Z,22.86
2022-12-27T02:58:58.756Z,22.68
2022-12-27T02:59:58.739Z,22.68
2022-12-27T03:00:58.796Z,22.68
2022-12-27T03:01:58.848Z,22.58
2022-12-27T03:02:58.780Z,22.58
2022-12-27T03:03:58.738Z,22.58
2022-12-27T03:04:58.741Z,22.58
2022-12-27T03:05:58.734Z,22.68
2022-12-27T03:06:58.739Z,22.68
2022-12-27T03:07:58.735Z,22.78
2022-12-27T03:08:58.741Z,22.58
2022-12-27T03:09:58.733Z,22.58
2022-12-27T03:10:58.742Z,22.78
2022-12-27T03:11:58.747Z,22.58
2022-12-27T03:12:58.741Z,22.68
2022-12-27T03:13:58.729Z,22.58
2022-12-27T03:14:58.938Z,22.58
2022-12-27T03:15:58.803Z,22.68
2022-12-27T03:16:58.733Z,22.78
2022-12-27T03:17:58.748Z,22.68
2022-12-27T03:18:58.730Z,22.67
2022-12-27T03:19:58.723Z,22.68
2022-12-27T03:20:58.731Z,22.68
2022-12-27T03:21:58.722Z,22.68
2022-12-27T03:22:58.727Z,22.68
2022-12-27T03:23:58.728Z,22.68
2022-12-27T03:24:58.883Z,22.78
2022-12-27T03:25:58.717Z,22.67
2022-12-27T03:26:58.724Z,22.67
2022-12-27T03:27:58.721Z,22.68
2022-12-27T03:28:58.722Z,22.68
2022-12-27T03:29:58.714Z,22.68
2022-12-27T03:30:58.794Z,22.67
2022-12-27T03:31:58.712Z,22.78
2022-12-27T03:32:58.719Z,22.68
2022-12-27T03:33:58.732Z,22.68
2022-12-27T03:34:58.719Z,22.78
2022-12-27T03:35:58.711Z,22.77
2022-12-27T03:36:58.713Z,22.68
2022-12-27T03:37:58.711Z,22.68
2022-12-27T03:38:58.716Z,22.86
2022-12-27T03:39:58.704Z,22.67
2022-12-27T03:40:58.711Z,22.68
2022-12-27T03:41:58.711Z,22.67
2022-12-27T03:42:58.733Z,22.68
2022-12-27T03:43:58.700Z,22.57
2022-12-27T03:44:58.706Z,22.68
2022-12-27T03:45:58.767Z,22.58
2022-12-27T03:46:58.712Z,22.78
2022-12-27T03:47:58.707Z,22.67
2022-12-27T03:48:58.708Z,22.78
2022-12-27T03:49:58.718Z,22.67
2022-12-27T03:50:58.766Z,22.68
2022-12-27T03:51:58.704Z,22.78
2022-12-27T03:52:58.703Z,22.68
2022-12-27T03:53:58.708Z,22.68
2022-12-27T03:54:58.705Z,22.68
2022-12-27T03:55:58.692Z,22.67
2022-12-27T03:56:58.697Z,22.68
2022-12-27T03:57:58.693Z,22.77
2022-12-27T03:58:58.696Z,22.68
2022-12-27T03:59:58.689Z,22.68
2022-12-27T04:00:58.694Z,22.68
2022-12-27T04:01:58.796Z,22.68
2022-12-27T04:02:58.818Z,22.68
2022-12-27T04:03:58.685Z,22.67
2022-12-27T04:04:58.699Z,22.68
2022-12-27T04:05:58.704Z,22.78
2022-12-27T04:06:58.696Z,22.68
2022-12-27T04:07:58.681Z,22.67
2022-12-27T04:08:58.686Z,22.68
2022-12-27T04:09:58.677Z,22.78
2022-12-27T04:10:58.693Z,22.77
2022-12-27T04:11:58.677Z,22.77
2022-12-27T04:12:58.691Z,22.68
2022-12-27T04:13:58.677Z,22.68
2022-12-27T04:14:58.679Z,22.57
2022-12-27T04:15:58.705Z,22.58
2022-12-27T04:16:58.686Z,22.68
2022-12-27T04:17:58.671Z,22.67
2022-12-27T04:18:58.681Z,22.58
2022-12-27T04:19:58.669Z,22.57
2022-12-27T04:20:58.677Z,22.78
2022-12-27T04:21:58.690Z,22.88
2022-12-27T04:22:58.676Z,22.57
2022-12-27T04:23:58.679Z,22.58
2022-12-27T04:24:58.674Z,22.68
2022-12-27T04:25:58.675Z,22.68
2022-12-27T04:26:58.673Z,22.67
2022-12-27T04:27:58.667Z,22.58
2022-12-27T04:28:58.670Z,22.58
2022-12-27T04:29:58.662Z,22.58
2022-12-27T04:30:58.719Z,22.68
2022-12-27T04:31:58.661Z,22.68
2022-12-27T04:32:58.676Z,22.48
2022-12-27T04:33:58.661Z,22.68
2022-12-27T04:34:58.673Z,22.58
2022-12-27T04:36:04.337Z,22.58
2022-12-27T04:36:58.664Z,22.57
2022-12-27T04:37:58.686Z,22.58
2022-12-27T04:38:58.662Z,22.67
2022-12-27T04:39:58.655Z,22.68
2022-12-27T04:40:58.669Z,22.58
2022-12-27T04:41:58.651Z,22.68
2022-12-27T04:42:58.658Z,22.68
2022-12-27T04:43:58.653Z,22.57
2022-12-27T04:44:58.658Z,22.68
2022-12-27T04:45:58.649Z,22.58
2022-12-27T04:46:58.663Z,22.67
2022-12-27T04:47:58.651Z,22.58
2022-12-27T04:48:58.668Z,22.58
2022-12-27T04:49:58.645Z,22.58
2022-12-27T04:50:58.650Z,22.57
2022-12-27T04:51:58.642Z,22.58
2022-12-27T04:52:58.650Z,22.68
2022-12-27T04:53:58.672Z,22.58
2022-12-27T04:54:58.669Z,22.57
2022-12-27T04:55:58.639Z,22.68
2022-12-27T04:56:58.645Z,22.57
2022-12-27T04:57:58.639Z,22.68
2022-12-27T04:58:58.665Z,22.58
2022-12-27T04:59:58.636Z,22.58
2022-12-27T05:00:58.640Z,22.58
2022-12-27T05:01:58.699Z,22.58
2022-12-27T05:02:58.707Z,22.68
2022-12-27T05:03:58.638Z,22.57
2022-12-27T05:04:58.636Z,22.68
2022-12-27T05:05:58.636Z,22.57
2022-12-27T05:06:58.636Z,22.57
2022-12-27T05:07:58.629Z,22.58
2022-12-27T05:08:58.640Z,22.68
2022-12-27T05:09:58.646Z,22.48
2022-12-27T05:10:58.630Z,22.49
2022-12-27T05:11:58.624Z,22.49
2022-12-27T05:12:58.633Z,22.49
2022-12-27T05:13:58.629Z,22.30
2022-12-27T05:14:58.629Z,22.28
2022-12-27T05:15:58.684Z,22.49
2022-12-27T05:16:58.626Z,22.49
2022-12-27T05:17:58.620Z,22.58
2022-12-27T05:18:58.665Z,22.28
2022-12-27T05:19:58.614Z,22.30
2022-12-27T05:20:58.622Z,22.39
2022-12-27T05:21:58.614Z,22.30
2022-12-27T05:22:58.619Z,22.20
2022-12-27T05:24:04.934Z,22.20
2022-12-27T05:24:58.617Z,22.28
2022-12-27T05:25:58.642Z,22.20
2022-12-27T05:26:58.645Z,22.10
2022-12-27T05:27:58.608Z,22.00
2022-12-27T05:28:58.620Z,21.99
2022-12-27T05:29:58.606Z,21.99
2022-12-27T05:30:58.669Z,22.00
2022-12-27T05:31:58.609Z,22.10
2022-12-27T05:32:58.613Z,21.89
2022-12-27T05:33:58.604Z,21.91
2022-12-27T05:34:58.612Z,22.00
2022-12-27T05:35:58.603Z,22.00
2022-12-27T05:36:58.609Z,21.91
2022-12-27T05:37:58.601Z,21.71
2022-12-27T05:38:58.631Z,21.71
2022-12-27T05:39:58.605Z,21.81
2022-12-27T05:40:58.608Z,21.91
2022-12-27T05:41:58.625Z,21.71
2022-12-27T05:42:58.603Z,21.71
2022-12-27T05:44:03.288Z,21.61
2022-12-27T05:44:58.602Z,21.71
2022-12-27T05:45:58.596Z,21.81
2022-12-27T05:46:58.628Z,21.51
2022-12-27T05:47:58.598Z,21.70
2022-12-27T05:48:58.599Z,21.71
2022-12-27T05:49:58.600Z,21.80
2022-12-27T05:50:58.602Z,21.81
2022-12-27T05:51:58.602Z,21.81
2022-12-27T05:52:58.594Z,21.51
2022-12-27T05:53:58.586Z,21.51
2022-12-27T05:54:58.595Z,21.51
2022-12-27T05:55:58.585Z,21.61
2022-12-27T05:56:58.600Z,21.51
2022-12-27T05:57:58.608Z,21.51
2022-12-27T05:58:58.594Z,21.33
2022-12-27T05:59:58.580Z,21.23
2022-12-27T06:00:58.590Z,21.41
2022-12-27T06:01:58.768Z,21.42
2022-12-27T06:02:58.716Z,21.42
2022-12-27T06:03:58.578Z,21.41
2022-12-27T06:04:58.591Z,21.41
2022-12-27T06:05:58.576Z,21.31
2022-12-27T06:06:58.582Z,21.31
2022-12-27T06:07:58.573Z,21.31
2022-12-27T06:08:58.581Z,21.31
2022-12-27T06:09:58.570Z,21.31
2022-12-27T06:10:58.570Z,21.51
2022-12-27T06:11:58.583Z,21.31
2022-12-27T06:12:58.598Z,21.41
2022-12-27T06:13:58.602Z,21.41
2022-12-27T06:14:58.566Z,21.51
2022-12-27T06:15:58.574Z,21.41
2022-12-27T06:16:58.565Z,21.51
2022-12-27T06:17:58.572Z,21.51
2022-12-27T06:18:58.566Z,21.51
2022-12-27T06:19:58.570Z,21.51
2022-12-27T06:20:58.561Z,21.51
2022-12-27T06:21:58.569Z,21.51
2022-12-27T06:22:58.560Z,21.51
2022-12-27T06:23:58.565Z,21.51
2022-12-27T06:24:58.558Z,21.31
2022-12-27T06:25:58.562Z,21.61
2022-12-27T06:26:58.554Z,21.51
2022-12-27T06:27:58.560Z,21.51
2022-12-27T06:28:58.566Z,21.51
2022-12-27T06:29:58.670Z,21.61
2022-12-27T06:30:58.556Z,21.61
2022-12-27T06:31:58.588Z,21.41
2022-12-27T06:32:58.556Z,21.51
2022-12-27T06:33:58.575Z,21.51
2022-12-27T06:34:58.546Z,21.61
2022-12-27T06:35:58.555Z,21.61
2022-12-27T06:36:58.548Z,21.61
2022-12-27T06:37:58.552Z,21.61
2022-12-27T06:38:58.540Z,21.61
2022-12-27T06:39:58.549Z,21.51
2022-12-27T06:40:58.550Z,21.31
2022-12-27T06:41:58.547Z,21.31
2022-12-27T06:42:58.542Z,21.41
2022-12-27T06:43:58.574Z,21.51
2022-12-27T06:44:58.544Z,21.41
2022-12-27T06:45:58.646Z,21.41
2022-12-27T06:46:58.537Z,21.41
2022-12-27T06:47:58.545Z,21.51
2022-12-27T06:48:58.535Z,21.41
2022-12-27T06:49:58.542Z,21.51
2022-12-27T06:50:58.533Z,21.51
2022-12-27T06:51:59.951Z,21.41
2022-12-27T06:52:58.533Z,21.51
2022-12-27T06:53:58.538Z,21.51
2022-12-27T06:54:58.530Z,21.61
2022-12-27T06:55:58.536Z,21.31
2022-12-27T06:56:58.528Z,21.41
2022-12-27T06:57:58.538Z,21.70
2022-12-27T06:58:58.530Z,21.31
2022-12-27T06:59:58.530Z,21.51
2022-12-27T07:00:58.593Z,21.41
2022-12-27T07:01:58.731Z,21.41
2022-12-27T07:02:58.588Z,21.41
2022-12-27T07:03:58.536Z,21.41
2022-12-27T07:04:58.520Z,21.31
2022-12-27T07:05:58.527Z,21.31
2022-12-27T07:06:58.519Z,21.31
2022-12-27T07:07:58.548Z,21.31
2022-12-27T07:08:58.528Z,21.41
2022-12-27T07:09:58.522Z,21.41
2022-12-27T07:10:58.515Z,21.41
2022-12-27T07:11:58.520Z,21.51
2022-12-27T07:12:58.514Z,21.31
2022-12-27T07:13:58.524Z,21.51
2022-12-27T07:14:58.516Z,21.51
2022-12-27T07:15:58.517Z,21.12
2022-12-27T07:16:58.680Z,21.51
2022-12-27T07:17:58.543Z,21.61
2022-12-27T07:18:58.513Z,21.41
2022-12-27T07:19:58.527Z,21.51
2022-12-27T07:20:58.509Z,21.12
2022-12-27T07:21:58.513Z,21.12
2022-12-27T07:22:58.507Z,21.02
2022-12-27T07:23:58.513Z,21.02
2022-12-27T07:24:58.503Z,21.22
2022-12-27T07:25:58.509Z,21.12
2022-12-27T07:26:58.510Z,21.02
2022-12-27T07:27:58.506Z,21.12
2022-12-27T07:28:58.499Z,21.22
2022-12-27T07:29:58.505Z,21.22
2022-12-27T07:30:58.496Z,21.12
2022-12-27T07:31:58.546Z,21.02
2022-12-27T07:32:58.498Z,21.31
2022-12-27T07:33:58.533Z,21.02
2022-12-27T07:34:58.497Z,21.02
2022-12-27T07:35:58.498Z,21.02
2022-12-27T07:36:58.492Z,21.02
2022-12-27T07:37:58.499Z,21.12
2022-12-27T07:38:58.488Z,21.22
2022-12-27T07:39:58.494Z,21.31
2022-12-27T07:40:58.487Z,21.22
2022-12-27T07:42:01.953Z,21.22
2022-12-27T07:42:58.492Z,21.22
2022-12-27T07:43:58.493Z,21.22
2022-12-27T07:44:58.481Z,20.93
2022-12-27T07:45:58.512Z,21.02
2022-12-27T07:46:58.487Z,21.12
2022-12-27T07:47:58.485Z,21.12
2022-12-27T07:48:58.499Z,21.12
2022-12-27T07:49:58.506Z,21.12
2022-12-27T07:50:58.475Z,21.12
2022-12-27T07:51:58.490Z,21.02
2022-12-27T07:52:58.472Z,21.22
2022-12-27T07:53:58.492Z,20.93
2022-12-27T07:54:58.476Z,21.12
2022-12-27T07:55:58.479Z,20.93
2022-12-27T07:56:58.488Z,21.02
2022-12-27T07:57:58.475Z,20.93
2022-12-27T07:58:58.492Z,20.93
2022-12-27T07:59:58.481Z,20.83
2022-12-27T08:00:58.490Z,21.02
2022-12-27T08:01:58.585Z,20.93
2022-12-27T08:02:58.490Z,20.93
2022-12-27T08:03:58.479Z,20.93
2022-12-27T08:04:58.464Z,20.83
2022-12-27T08:05:58.491Z,20.83
2022-12-27T08:06:58.462Z,20.83
2022-12-27T08:07:58.470Z,20.83
2022-12-27T08:08:58.463Z,20.93
2022-12-27T08:09:58.468Z,20.93
2022-12-27T08:11:05.144Z,20.83
2022-12-27T08:11:58.469Z,20.93
2022-12-27T08:12:58.456Z,20.93
2022-12-27T08:13:58.460Z,20.73
2022-12-27T08:14:58.453Z,20.83
2022-12-27T08:15:58.465Z,20.73
2022-12-27T08:16:58.489Z,20.73
2022-12-27T08:17:58.458Z,20.64
2022-12-27T08:19:02.019Z,20.65
2022-12-27T08:19:58.460Z,20.64
2022-12-27T08:20:58.448Z,20.73
2022-12-27T08:21:58.595Z,20.73
2022-12-27T08:22:58.454Z,20.73
2022-12-27T08:23:58.454Z,20.64
2022-12-27T08:24:58.452Z,20.64
2022-12-27T08:25:58.452Z,20.83
2022-12-27T08:26:58.442Z,20.54
2022-12-27T08:27:58.451Z,20.73
2022-12-27T08:28:58.447Z,20.83
2022-12-27T08:29:58.447Z,20.83
2022-12-27T08:30:58.456Z,20.93
2022-12-27T08:31:58.444Z,20.93
2022-12-27T08:32:58.444Z,20.44
2022-12-27T08:33:58.995Z,20.54
2022-12-27T08:35:12.078Z,20.44
2022-12-27T08:35:58.447Z,20.54
2022-12-27T08:36:58.434Z,20.83
2022-12-27T08:37:58.471Z,20.83
2022-12-27T08:38:58.443Z,20.73
2022-12-27T08:40:02.685Z,20.64
2022-12-27T08:40:58.441Z,20.64
2022-12-27T08:41:58.450Z,20.65
2022-12-27T08:42:58.434Z,20.93
2022-12-27T08:43:58.438Z,20.64
2022-12-27T08:44:58.431Z,20.93
2022-12-27T08:45:58.454Z,20.64
2022-12-27T08:46:58.426Z,20.83
2022-12-27T08:47:58.476Z,20.83
2022-12-27T08:48:58.425Z,20.64
2022-12-27T08:49:58.430Z,20.55
2022-12-27T08:50:58.420Z,20.93
2022-12-27T08:51:58.444Z,20.83
2022-12-27T08:52:58.418Z,20.73
2022-12-27T08:53:58.485Z,20.73
2022-12-27T08:54:58.419Z,20.44
2022-12-27T08:55:58.424Z,20.83
2022-12-27T08:56:58.420Z,20.73
2022-12-27T08:57:58.431Z,20.44
2022-12-27T08:58:58.426Z,20.73
2022-12-27T08:59:58.422Z,20.54
2022-12-27T09:00:58.506Z,20.73
2022-12-27T09:01:58.515Z,20.73
2022-12-27T09:02:58.514Z,20.73
2022-12-27T09:03:58.414Z,20.93
2022-12-27T09:04:58.410Z,20.84
2022-12-27T09:05:58.425Z,20.64
2022-12-27T09:06:58.403Z,20.93
2022-12-27T09:07:58.415Z,20.93
2022-12-27T09:08:58.413Z,20.83
2022-12-27T09:09:58.436Z,20.54
2022-12-27T09:10:58.398Z,20.54
2022-12-27T09:11:58.410Z,20.64
2022-12-27T09:12:58.400Z,20.44
2022-12-27T09:13:58.417Z,20.34
2022-12-27T09:14:58.396Z,20.44
2022-12-27T09:15:58.444Z,20.45
2022-12-27T09:16:58.396Z,20.44
2022-12-27T09:17:58.435Z,20.44
2022-12-27T09:18:58.416Z,20.44
2022-12-27T09:19:58.399Z,20.44
2022-12-27T09:20:58.391Z,20.44
2022-12-27T09:21:58.408Z,20.55
2022-12-27T09:22:58.389Z,20.25
2022-12-27T09:23:58.401Z,20.44
2022-12-27T09:24:58.426Z,20.54
2022-12-27T09:25:58.492Z,20.54
2022-12-27T09:26:58.385Z,20.44
2022-12-27T09:27:58.403Z,20.34
2022-12-27T09:28:58.416Z,20.34
2022-12-27T09:29:58.395Z,20.34
2022-12-27T09:30:58.455Z,20.25
2022-12-27T09:31:58.388Z,20.34
2022-12-27T09:32:58.391Z,20.34
2022-12-27T09:33:58.391Z,20.25
2022-12-27T09:34:58.381Z,20.26
2022-12-27T09:35:58.387Z,20.26
2022-12-27T09:36:58.378Z,20.16
2022-12-27T09:37:58.388Z,20.15
2022-12-27T09:38:58.378Z,20.16
2022-12-27T09:39:58.409Z,20.16
2022-12-27T09:40:58.375Z,20.16
2022-12-27T09:43:12.520Z,20.06
2022-12-27T09:43:58.379Z,20.06
2022-12-27T09:44:58.368Z,20.06
2022-12-27T09:45:58.439Z,20.15
2022-12-27T09:46:58.367Z,20.06
2022-12-27T09:47:58.379Z,20.16
2022-12-27T09:48:58.367Z,20.16
2022-12-27T09:49:58.378Z,20.06
2022-12-27T09:50:58.368Z,20.06
2022-12-27T09:51:58.385Z,20.15
2022-12-27T09:52:58.369Z,20.06
2022-12-27T09:53:58.371Z,20.15
2022-12-27T09:55:04.435Z,20.06
2022-12-27T09:55:58.366Z,20.06
2022-12-27T09:57:22.334Z,20.06
2022-12-27T09:57:58.399Z,20.15
2022-12-27T09:58:58.358Z,20.06
2022-12-27T09:59:58.364Z,20.06
2022-12-27T10:00:58.358Z,20.06
2022-12-27T10:01:58.493Z,20.06
2022-12-27T10:02:58.358Z,20.06
2022-12-27T10:03:58.382Z,20.06
2022-12-27T10:05:19.762Z,20.06
2022-12-27T10:05:58.404Z,20.06
2022-12-27T10:06:58.349Z,20.06
2022-12-27T10:07:58.358Z,20.06
2022-12-27T10:08:58.352Z,20.06
2022-12-27T10:09:58.355Z,20.06
2022-12-27T10:10:58.355Z,20.15
2022-12-27T10:11:58.351Z,20.15
2022-12-27T10:12:58.346Z,20.15
2022-12-27T10:13:58.383Z,20.16
2022-12-27T10:14:58.352Z,20.16
2022-12-27T10:15:58.385Z,20.16
2022-12-27T10:16:58.344Z,20.15
2022-12-27T10:17:58.354Z,20.06
2022-12-27T10:18:58.348Z,20.06
2022-12-27T10:19:58.345Z,20.15
2022-12-27T10:20:58.336Z,20.16
2022-12-27T10:21:58.342Z,20.06
2022-12-27T10:23:04.333Z,20.15
2022-12-27T10:23:58.346Z,20.25
2022-12-27T10:24:58.334Z,20.06
2022-12-27T10:25:58.341Z,20.15
2022-12-27T10:26:58.344Z,20.06
2022-12-27T10:27:58.330Z,20.06
2022-12-27T10:28:58.336Z,20.25
2022-12-27T10:29:58.366Z,20.36
2022-12-27T10:30:58.364Z,20.25
2022-12-27T10:31:58.327Z,20.25
2022-12-27T10:32:58.336Z,20.15
2022-12-27T10:33:58.345Z,20.15
2022-12-27T10:34:58.378Z,20.26
2022-12-27T10:35:58.332Z,20.15
2022-12-27T10:36:58.330Z,20.15
2022-12-27T10:37:58.323Z,20.16
2022-12-27T10:38:58.347Z,20.26
2022-12-27T10:39:58.317Z,20.25
2022-12-27T10:40:58.324Z,20.25
2022-12-27T10:41:58.316Z,20.15
2022-12-27T10:42:58.322Z,20.34
2022-12-27T10:43:58.314Z,20.25
2022-12-27T10:44:58.323Z,19.67
2022-12-27T10:45:58.343Z,19.76
2022-12-27T10:46:58.394Z,20.25
2022-12-27T10:47:58.308Z,20.25
2022-12-27T10:49:21.334Z,20.25
2022-12-27T10:49:58.309Z,20.26
2022-12-27T10:50:58.340Z,19.78
2022-12-27T10:51:58.310Z,20.25
2022-12-27T10:52:58.314Z,20.26
2022-12-27T10:53:58.306Z,20.25
2022-12-27T10:54:58.319Z,20.25
2022-12-27T10:55:58.307Z,20.26
2022-12-27T10:56:58.312Z,19.76
2022-12-27T10:57:58.306Z,20.34
2022-12-27T10:58:59.243Z,20.25
2022-12-27T10:59:58.301Z,20.25
2022-12-27T11:00:58.466Z,19.76
2022-12-27T11:01:58.474Z,19.78
2022-12-27T11:02:58.338Z,19.76
2022-12-27T11:03:58.298Z,19.76
2022-12-27T11:04:58.303Z,19.76
2022-12-27T11:05:58.300Z,19.86
2022-12-27T11:06:58.303Z,20.25
2022-12-27T11:07:58.306Z,19.67
2022-12-27T11:08:58.300Z,19.86
2022-12-27T11:09:58.295Z,19.76
2022-12-27T11:10:58.299Z,19.76
2022-12-27T11:11:58.288Z,19.76
2022-12-27T11:12:58.293Z,19.86
2022-12-27T11:13:58.290Z,19.86
2022-12-27T11:14:58.294Z,19.87
2022-12-27T11:15:59.129Z,19.76
2022-12-27T11:16:58.293Z,19.76
2022-12-27T11:17:58.314Z,19.87
2022-12-27T11:18:58.290Z,19.87
2022-12-27T11:19:58.284Z,19.87
2022-12-27T11:20:58.286Z,19.76
2022-12-27T11:21:58.288Z,19.76
2022-12-27T11:22:58.299Z,19.96
2022-12-27T11:23:58.277Z,19.87
2022-12-27T11:24:58.289Z,19.96
2022-12-27T11:25:58.275Z,19.86
2022-12-27T11:26:58.286Z,19.86
2022-12-27T11:27:58.301Z,19.76
2022-12-27T11:28:58.293Z,19.86
2022-12-27T11:29:58.273Z,19.86
2022-12-27T11:30:58.479Z,19.86
2022-12-27T11:31:58.314Z,19.86
2022-12-27T11:32:58.303Z,19.86
2022-12-27T11:33:58.296Z,19.96
2022-12-27T11:34:58.272Z,19.96
2022-12-27T11:35:58.272Z,19.86
2022-12-27T11:36:58.272Z,19.96
2022-12-27T11:37:58.265Z,19.86
2022-12-27T11:38:58.292Z,19.96
2022-12-27T11:39:58.264Z,19.86
2022-12-27T11:40:58.277Z,20.06
2022-12-27T11:41:58.269Z,19.86
2022-12-27T11:42:58.270Z,19.86
2022-12-27T11:43:58.260Z,19.96
2022-12-27T11:44:58.269Z,19.96
2022-12-27T11:45:58.273Z,20.06
2022-12-27T11:46:59.515Z,19.96
2022-12-27T11:47:58.259Z,19.96
2022-12-27T11:48:58.265Z,19.96
2022-12-27T11:49:58.281Z,20.06
2022-12-27T11:50:58.261Z,19.96
2022-12-27T11:51:58.253Z,19.96
2022-12-27T11:52:58.260Z,19.96
2022-12-27T11:53:58.261Z,19.86
2022-12-27T11:54:58.258Z,19.86
2022-12-27T11:55:58.260Z,19.96
2022-12-27T11:56:58.256Z,19.87
2022-12-27T11:57:58.246Z,19.96
2022-12-27T11:58:58.265Z,20.06
2022-12-27T11:59:58.248Z,19.87
2022-12-27T12:01:03.621Z,19.96
2022-12-27T12:01:58.361Z,19.96
2022-12-27T12:02:58.327Z,19.86
2022-12-27T12:03:58.243Z,19.96
2022-12-27T12:04:58.246Z,19.87
2022-12-27T12:05:58.263Z,19.86
2022-12-27T12:06:58.244Z,19.76
2022-12-27T12:07:58.262Z,19.86
2022-12-27T12:08:58.248Z,19.96
2022-12-27T12:09:58.234Z,19.86
2022-12-27T12:10:58.239Z,19.96
2022-12-27T12:11:58.233Z,19.96
2022-12-27T12:12:58.239Z,19.86
2022-12-27T12:13:58.232Z,19.87
2022-12-27T12:14:58.236Z,19.96
2022-12-27T12:15:58.236Z,19.78
2022-12-27T12:16:58.296Z,19.96
2022-12-27T12:17:58.240Z,19.76
2022-12-27T12:18:58.236Z,19.76
2022-12-27T12:19:58.231Z,19.76
2022-12-27T12:20:58.241Z,19.78
2022-12-27T12:21:58.256Z,19.86
2022-12-27T12:22:58.268Z,19.76
2022-12-27T12:23:58.228Z,19.78
2022-12-27T12:24:58.237Z,19.76
2022-12-27T12:25:58.246Z,19.76
2022-12-27T12:26:58.227Z,19.87
2022-12-27T12:27:58.223Z,19.96
2022-12-27T12:28:59.811Z,19.96
2022-12-27T12:29:58.216Z,19.87
2022-12-27T12:30:58.226Z,19.76
2022-12-27T12:31:58.292Z,19.76
2022-12-27T12:32:58.242Z,19.86
2022-12-27T12:33:58.217Z,19.96
2022-12-27T12:34:58.228Z,19.96
2022-12-27T12:35:58.214Z,19.87
2022-12-27T12:36:58.224Z,19.68
2022-12-27T12:37:58.245Z,19.68
2022-12-27T12:38:58.215Z,19.58
2022-12-27T12:39:58.210Z,20.16
2022-12-27T12:40:58.214Z,19.87
2022-12-27T12:41:58.207Z,19.58
2022-12-27T12:42:58.211Z,19.48
2022-12-27T12:43:58.215Z,19.48
2022-12-27T12:44:58.212Z,19.48
2022-12-27T12:45:58.250Z,19.29
2022-12-27T12:46:58.206Z,19.29
2022-12-27T12:47:58.206Z,18.90
2022-12-27T12:48:58.204Z,19.09
2022-12-27T12:49:58.216Z,19.09
2022-12-27T12:50:58.214Z,19.09
2022-12-27T12:51:58.204Z,19.19
2022-12-27T12:52:58.205Z,19.19
2022-12-27T12:53:58.217Z,19.29